sensor_id;sensor_type;location;lat;lon;timestamp;pressure;altitude;pressure_sealevel;temperature;humidity
55351;BME280;62194;49.480;10.986;2023-02-17T00:00:00;98995.38;;;5.70;77.31
55351;BME280;62194;49.480;10.986;2023-02-17T00:00:06;98996.38;;;5.74;77.35
55351;BME280;62194;49.480;10.986;2023-02-17T00:00:12;99001.78;;;5.74;77.33
55351;BME280;62194;49.480;10.986;2023-02-17T00:00:18;99006.31;;;5.78;77.13
55351;BME280;62194;49.480;10.986;2023-02-17T00:00:23;98998.78;;;5.75;77.19
55351;BME280;62194;49.480;10.986;2023-02-17T00:00:29;99015.47;;;5.82;77.13
55351;BME280;62194;49.480;10.986;2023-02-17T00:00:37;98995.06;;;5.71;77.35
55351;BME280;62194;49.480;10.986;2023-02-17T00:00:43;99010.66;;;5.79;77.06
55351;BME280;62194;49.480;10.986;2023-02-17T00:00:48;98993.97;;;5.72;77.13
55351;BME280;62194;49.480;10.986;2023-02-17T00:00:54;98998.78;;;5.75;77.22
55351;BME280;62194;49.480;10.986;2023-02-17T00:01:00;99002.00;;;5.77;77.35
55351;BME280;62194;49.480;10.986;2023-02-17T00:01:20;99010.88;;;5.83;77.07
55351;BME280;62194;49.480;10.986;2023-02-17T00:01:31;99006.53;;;5.82;77.13
55351;BME280;62194;49.480;10.986;2023-02-17T00:01:36;98999.09;;;5.74;77.11
55351;BME280;62194;49.480;10.986;2023-02-17T00:01:42;98997.69;;;5.76;77.01
55351;BME280;62194;49.480;10.986;2023-02-17T00:01:47;99000.63;;;5.80;77.03
55351;BME280;62194;49.480;10.986;2023-02-17T00:01:52;99004.66;;;5.82;77.07
55351;BME280;62194;49.480;10.986;2023-02-17T00:01:58;98994.19;;;5.76;77.06
55351;BME280;62194;49.480;10.986;2023-02-17T00:02:04;98996.31;;;5.79;77.04
55351;BME280;62194;49.480;10.986;2023-02-17T00:02:09;99000.91;;;5.78;77.24
55351;BME280;62194;49.480;10.986;2023-02-17T00:02:15;99001.94;;;5.82;76.89
55351;BME280;62194;49.480;10.986;2023-02-17T00:02:20;99003.81;;;5.82;76.79
55351;BME280;62194;49.480;10.986;2023-02-17T00:02:25;98994.19;;;5.76;76.88
55351;BME280;62194;49.480;10.986;2023-02-17T00:02:31;98989.06;;;5.74;77.21
55351;BME280;62194;49.480;10.986;2023-02-17T00:02:36;98989.88;;;5.75;76.95
55351;BME280;62194;49.480;10.986;2023-02-17T00:02:42;98997.59;;;5.81;77.04
55351;BME280;62194;49.480;10.986;2023-02-17T00:02:47;99008.66;;;5.85;77.12
55351;BME280;62194;49.480;10.986;2023-02-17T00:02:57;99000.03;;;5.83;77.06
55351;BME280;62194;49.480;10.986;2023-02-17T00:03:03;98999.22;;;5.82;76.89
55351;BME280;62194;49.480;10.986;2023-02-17T00:03:08;99002.16;;;5.86;76.75
55351;BME280;62194;49.480;10.986;2023-02-17T00:03:14;99002.44;;;5.84;76.86
55351;BME280;62194;49.480;10.986;2023-02-17T00:03:19;98992.78;;;5.78;76.85
55351;BME280;62194;49.480;10.986;2023-02-17T00:03:25;99005.66;;;5.86;76.76
55351;BME280;62194;49.480;10.986;2023-02-17T00:03:30;98997.31;;;5.83;76.89
55351;BME280;62194;49.480;10.986;2023-02-17T00:03:36;98997.13;;;5.79;76.79
55351;BME280;62194;49.480;10.986;2023-02-17T00:03:42;99014.88;;;5.85;76.74
55351;BME280;62194;49.480;10.986;2023-02-17T00:03:48;99005.94;;;5.85;77.05
55351;BME280;62194;49.480;10.986;2023-02-17T00:03:55;98996.06;;;5.75;76.87
55351;BME280;62194;49.480;10.986;2023-02-17T00:04:00;99002.44;;;5.84;76.82
55351;BME280;62194;49.480;10.986;2023-02-17T00:04:06;98993.50;;;5.84;76.89
55351;BME280;62194;49.480;10.986;2023-02-17T00:04:11;98998.72;;;5.80;77.09
55351;BME280;62194;49.480;10.986;2023-02-17T00:04:17;98995.78;;;5.77;76.96
55351;BME280;62194;49.480;10.986;2023-02-17T00:04:22;99006.25;;;5.83;76.96
55351;BME280;62194;49.480;10.986;2023-02-17T00:04:28;99002.44;;;5.84;76.80
55351;BME280;62194;49.480;10.986;2023-02-17T00:04:34;98991.19;;;5.77;76.90
55351;BME280;62194;49.480;10.986;2023-02-17T00:04:39;98988.56;;;5.72;76.84
55351;BME280;62194;49.480;10.986;2023-02-17T00:04:45;99005.66;;;5.86;76.88
55351;BME280;62194;49.480;10.986;2023-02-17T00:04:51;98996.75;;;5.86;76.72
55351;BME280;62194;49.480;10.986;2023-02-17T00:04:57;98997.31;;;5.83;77.14
55351;BME280;62194;49.480;10.986;2023-02-17T00:05:04;98995.94;;;5.85;76.71
55351;BME280;62194;49.480;10.986;2023-02-17T00:05:09;99004.28;;;5.89;76.67
55351;BME280;62194;49.480;10.986;2023-02-17T00:05:14;98996.94;;;5.90;76.72
55351;BME280;62194;49.480;10.986;2023-02-17T00:05:20;98997.44;;;5.92;76.53
55351;BME280;62194;49.480;10.986;2023-02-17T00:05:26;98994.72;;;5.92;76.35
55351;BME280;62194;49.480;10.986;2023-02-17T00:05:32;98989.41;;;5.86;76.50
55351;BME280;62194;49.480;10.986;2023-02-17T00:05:40;98986.13;;;5.90;76.28
55351;BME280;62194;49.480;10.986;2023-02-17T00:05:45;98985.25;;;5.94;76.27
55351;BME280;62194;49.480;10.986;2023-02-17T00:05:51;98999.31;;;5.96;76.12
55351;BME280;62194;49.480;10.986;2023-02-17T00:05:57;98999.31;;;5.96;76.10
55351;BME280;62194;49.480;10.986;2023-02-17T00:06:07;99003.63;;;5.97;76.13
55351;BME280;62194;49.480;10.986;2023-02-17T00:06:14;98997.44;;;5.92;75.99
55351;BME280;62194;49.480;10.986;2023-02-17T00:06:26;98994.69;;;5.97;75.92
55351;BME280;62194;49.480;10.986;2023-02-17T00:06:32;98991.78;;;5.93;76.21
55351;BME280;62194;49.480;10.986;2023-02-17T00:06:37;98998.28;;;5.92;76.10
55351;BME280;62194;49.480;10.986;2023-02-17T00:06:42;98990.44;;;5.91;76.08
55351;BME280;62194;49.480;10.986;2023-02-17T00:06:48;98999.91;;;5.93;76.01
55351;BME280;62194;49.480;10.986;2023-02-17T00:06:53;99005.84;;;5.95;76.10
55351;BME280;62194;49.480;10.986;2023-02-17T00:06:59;98992.94;;;5.87;76.16
55351;BME280;62194;49.480;10.986;2023-02-17T00:07:05;99007.72;;;5.95;76.33
55351;BME280;62194;49.480;10.986;2023-02-17T00:07:10;99000.69;;;5.94;76.20
55351;BME280;62194;49.480;10.986;2023-02-17T00:07:16;98977.06;;;5.80;76.33
55351;BME280;62194;49.480;10.986;2023-02-17T00:07:21;99006.63;;;5.96;76.21
55351;BME280;62194;49.480;10.986;2023-02-17T00:07:26;98985.13;;;5.85;76.13
55351;BME280;62194;49.480;10.986;2023-02-17T00:07:35;98986.72;;;5.86;76.06
55351;BME280;62194;49.480;10.986;2023-02-17T00:07:40;98991.81;;;5.88;76.11
55351;BME280;62194;49.480;10.986;2023-02-17T00:07:46;99000.69;;;5.94;76.18
55351;BME280;62194;49.480;10.986;2023-02-17T00:07:51;99002.59;;;5.93;76.15
55351;BME280;62194;49.480;10.986;2023-02-17T00:07:57;98996.09;;;5.94;76.16
55351;BME280;62194;49.480;10.986;2023-02-17T00:08:02;98989.13;;;5.88;75.98
55351;BME280;62194;49.480;10.986;2023-02-17T00:08:07;98993.94;;;5.91;76.25
55351;BME280;62194;49.480;10.986;2023-02-17T00:08:13;98986.19;;;5.84;75.93
55351;BME280;62194;49.480;10.986;2023-02-17T00:08:18;98993.94;;;5.91;76.04
55351;BME280;62194;49.480;10.986;2023-02-17T00:08:24;98997.41;;;5.97;76.26
55351;BME280;62194;49.480;10.986;2023-02-17T00:08:29;98986.72;;;5.86;76.10
55351;BME280;62194;49.480;10.986;2023-02-17T00:08:35;98999.31;;;5.96;76.18
55351;BME280;62194;49.480;10.986;2023-02-17T00:08:40;98997.19;;;5.93;76.18
55351;BME280;62194;49.480;10.986;2023-02-17T00:08:46;99001.22;;;5.96;76.31
55351;BME280;62194;49.480;10.986;2023-02-17T00:08:52;98990.97;;;5.93;76.16
55351;BME280;62194;49.480;10.986;2023-02-17T00:08:58;98992.56;;;5.94;76.22
55351;BME280;62194;49.480;10.986;2023-02-17T00:09:04;98998.00;;;5.94;76.35
55351;BME280;62194;49.480;10.986;2023-02-17T00:09:09;98997.09;;;5.98;76.24
55351;BME280;62194;49.480;10.986;2023-02-17T00:09:15;99004.41;;;5.98;76.36
55351;BME280;62194;49.480;10.986;2023-02-17T00:09:20;98999.00;;;5.98;76.33
55351;BME280;62194;49.480;10.986;2023-02-17T00:09:25;98988.53;;;5.91;76.19
55351;BME280;62194;49.480;10.986;2023-02-17T00:09:31;98992.34;;;5.90;76.20
55351;BME280;62194;49.480;10.986;2023-02-17T00:09:36;99002.28;;;5.95;76.08
55351;BME280;62194;49.480;10.986;2023-02-17T00:09:42;99002.00;;;5.96;76.03
55351;BME280;62194;49.480;10.986;2023-02-17T00:09:47;99004.72;;;5.96;76.29
55351;BME280;62194;49.480;10.986;2023-02-17T00:09:52;98992.34;;;5.90;76.38
55351;BME280;62194;49.480;10.986;2023-02-17T00:09:58;99002.81;;;5.97;76.45
55351;BME280;62194;49.480;10.986;2023-02-17T00:10:04;99000.91;;;5.97;76.25
55351;BME280;62194;49.480;10.986;2023-02-17T00:10:09;98991.78;;;5.93;76.43
55351;BME280;62194;49.480;10.986;2023-02-17T00:10:15;99003.63;;;5.97;76.31
55351;BME280;62194;49.480;10.986;2023-02-17T00:10:21;99002.00;;;5.96;76.17
55351;BME280;62194;49.480;10.986;2023-02-17T00:10:26;98999.00;;;5.98;76.18
55351;BME280;62194;49.480;10.986;2023-02-17T00:10:31;99000.41;;;5.95;76.27
55351;BME280;62194;49.480;10.986;2023-02-17T00:10:36;98995.56;;;5.92;76.41
55351;BME280;62194;49.480;10.986;2023-02-17T00:10:42;98993.13;;;5.91;76.29
55351;BME280;62194;49.480;10.986;2023-02-17T00:10:55;98998.00;;;5.94;76.25
55351;BME280;62194;49.480;10.986;2023-02-17T00:11:01;99002.00;;;5.96;76.28
55351;BME280;62194;49.480;10.986;2023-02-17T00:11:07;98999.59;;;5.95;76.33
55351;BME280;62194;49.480;10.986;2023-02-17T00:11:13;98998.19;;;5.97;76.40
55351;BME280;62194;49.480;10.986;2023-02-17T00:11:19;99002.50;;;5.98;76.06
55351;BME280;62194;49.480;10.986;2023-02-17T00:11:25;99004.41;;;5.98;76.27
55351;BME280;62194;49.480;10.986;2023-02-17T00:11:32;99005.22;;;5.98;76.06
55351;BME280;62194;49.480;10.986;2023-02-17T00:11:38;98995.00;;;5.95;76.25
55351;BME280;62194;49.480;10.986;2023-02-17T00:11:43;98989.94;;;5.89;76.21
55351;BME280;62194;49.480;10.986;2023-02-17T00:11:48;98997.72;;;5.95;76.24
55351;BME280;62194;49.480;10.986;2023-02-17T00:11:54;98993.69;;;5.93;76.26
55351;BME280;62194;49.480;10.986;2023-02-17T00:11:59;98998.00;;;5.94;75.94
55351;BME280;62194;49.480;10.986;2023-02-17T00:12:05;99005.53;;;5.97;76.22
55351;BME280;62194;49.480;10.986;2023-02-17T00:12:10;99000.09;;;5.97;76.16
55351;BME280;62194;49.480;10.986;2023-02-17T00:12:15;98982.69;;;5.84;76.16
55351;BME280;62194;49.480;10.986;2023-02-17T00:12:21;98989.13;;;5.88;76.21
55351;BME280;62194;49.480;10.986;2023-02-17T00:12:26;98999.59;;;5.95;76.48
55351;BME280;62194;49.480;10.986;2023-02-17T00:12:32;98991.53;;;5.90;76.33
55351;BME280;62194;49.480;10.986;2023-02-17T00:12:37;98989.41;;;5.86;76.46
55351;BME280;62194;49.480;10.986;2023-02-17T00:12:43;98987.22;;;5.89;76.49
55351;BME280;62194;49.480;10.986;2023-02-17T00:12:48;99003.94;;;5.96;76.47
55351;BME280;62194;49.480;10.986;2023-02-17T00:12:54;98984.81;;;5.87;76.14
55351;BME280;62194;49.480;10.986;2023-02-17T00:12:59;98992.34;;;5.90;76.18
55351;BME280;62194;49.480;10.986;2023-02-17T00:13:04;98995.03;;;5.90;76.30
55351;BME280;62194;49.480;10.986;2023-02-17T00:13:10;99004.22;;;5.94;76.62
55351;BME280;62194;49.480;10.986;2023-02-17T00:13:15;98988.91;;;5.84;76.67
55351;BME280;62194;49.480;10.986;2023-02-17T00:13:20;98989.69;;;5.85;76.58
55351;BME280;62194;49.480;10.986;2023-02-17T00:13:26;98984.28;;;5.85;76.62
55351;BME280;62194;49.480;10.986;2023-02-17T00:13:32;99000.69;;;5.94;76.52
55351;BME280;62194;49.480;10.986;2023-02-17T00:13:38;98999.31;;;5.96;76.86
55351;BME280;62194;49.480;10.986;2023-02-17T00:13:43;98976.63;;;5.92;76.73
55351;BME280;62194;49.480;10.986;2023-02-17T00:13:49;98985.47;;;5.98;76.42
55351;BME280;62194;49.480;10.986;2023-02-17T00:13:55;98989.81;;;5.99;76.21
55351;BME280;62194;49.480;10.986;2023-02-17T00:14:00;99001.31;;;6.04;76.07
55351;BME280;62194;49.480;10.986;2023-02-17T00:14:06;98991.09;;;6.01;76.33
55351;BME280;62194;49.480;10.986;2023-02-17T00:14:12;98994.63;;;6.02;76.20
55351;BME280;62194;49.480;10.986;2023-02-17T00:14:18;98995.91;;;6.04;76.09
55351;BME280;62194;49.480;10.986;2023-02-17T00:14:23;98990.38;;;5.96;76.14
55351;BME280;62194;49.480;10.986;2023-02-17T00:14:28;98978.75;;;5.95;75.99
55351;BME280;62194;49.480;10.986;2023-02-17T00:14:34;99005.66;;;6.05;76.09
55351;BME280;62194;49.480;10.986;2023-02-17T00:14:39;98990.28;;;6.01;76.12
55351;BME280;62194;49.480;10.986;2023-02-17T00:14:44;99001.03;;;6.06;76.08
55351;BME280;62194;49.480;10.986;2023-02-17T00:14:50;98993.00;;;6.01;75.86
55351;BME280;62194;49.480;10.986;2023-02-17T00:14:56;98987.09;;;5.99;76.27
55351;BME280;62194;49.480;10.986;2023-02-17T00:15:01;98984.38;;;5.99;75.96
55351;BME280;62194;49.480;10.986;2023-02-17T00:15:07;98995.91;;;6.04;75.95
55351;BME280;62194;49.480;10.986;2023-02-17T00:15:13;98994.84;;;6.05;76.23
55351;BME280;62194;49.480;10.986;2023-02-17T00:15:18;98973.34;;;5.95;76.05
55351;BME280;62194;49.480;10.986;2023-02-17T00:15:24;98982.69;;;6.03;76.21
55351;BME280;62194;49.480;10.986;2023-02-17T00:15:29;98980.78;;;6.03;75.71
55351;BME280;62194;49.480;10.986;2023-02-17T00:15:37;98995.53;;;6.11;75.77
55351;BME280;62194;49.480;10.986;2023-02-17T00:15:46;98990.13;;;6.11;75.77
55351;BME280;62194;49.480;10.986;2023-02-17T00:15:52;98990.63;;;6.13;75.60
55351;BME280;62194;49.480;10.986;2023-02-17T00:15:58;98987.72;;;6.09;75.41
55351;BME280;62194;49.480;10.986;2023-02-17T00:16:11;98979.06;;;6.07;75.19
55351;BME280;62194;49.480;10.986;2023-02-17T00:16:21;98978.38;;;6.02;74.52
55351;BME280;62194;49.480;10.986;2023-02-17T00:16:28;98990.94;;;6.12;74.65
55351;BME280;62194;49.480;10.986;2023-02-17T00:16:34;98979.66;;;6.04;74.61
55351;BME280;62194;49.480;10.986;2023-02-17T00:16:39;98986.13;;;6.08;74.77
55351;BME280;62194;49.480;10.986;2023-02-17T00:16:45;98979.38;;;6.06;74.80
55351;BME280;62194;49.480;10.986;2023-02-17T00:16:50;98977.69;;;6.10;74.97
55351;BME280;62194;49.480;10.986;2023-02-17T00:16:56;98981.91;;;6.16;74.77
55351;BME280;62194;49.480;10.986;2023-02-17T00:17:01;98984.63;;;6.16;75.32
55351;BME280;62194;49.480;10.986;2023-02-17T00:17:15;98975.50;;;6.12;75.78
55351;BME280;62194;49.480;10.986;2023-02-17T00:17:21;98995.06;;;6.23;74.84
55351;BME280;62194;49.480;10.986;2023-02-17T00:17:26;98987.16;;;6.26;74.87
55351;BME280;62194;49.480;10.986;2023-02-17T00:17:32;98994.16;;;6.27;74.61
55351;BME280;62194;49.480;10.986;2023-02-17T00:17:37;98979.13;;;6.21;74.52
55351;BME280;62194;49.480;10.986;2023-02-17T00:17:43;98970.28;;;6.16;74.39
55351;BME280;62194;49.480;10.986;2023-02-17T00:17:48;98973.47;;;6.18;74.44
55351;BME280;62194;49.480;10.986;2023-02-17T00:17:53;98968.31;;;6.21;74.43
55351;BME280;62194;49.480;10.986;2023-02-17T00:17:59;98988.16;;;6.30;74.59
55351;BME280;62194;49.480;10.986;2023-02-17T00:18:06;98995.19;;;6.31;74.67
55351;BME280;62194;49.480;10.986;2023-02-17T00:18:12;98972.59;;;6.22;74.52
55351;BME280;62194;49.480;10.986;2023-02-17T00:18:17;98985.75;;;6.29;74.58
55351;BME280;62194;49.480;10.986;2023-02-17T00:18:23;98982.31;;;6.23;74.40
55351;BME280;62194;49.480;10.986;2023-02-17T00:18:28;98968.31;;;6.21;74.24
55351;BME280;62194;49.480;10.986;2023-02-17T00:18:34;98976.63;;;6.25;74.43
55351;BME280;62194;49.480;10.986;2023-02-17T00:18:42;98989.19;;;6.35;74.27
55351;BME280;62194;49.480;10.986;2023-02-17T00:18:55;98986.69;;;6.38;74.03
55351;BME280;62194;49.480;10.986;2023-02-17T00:19:04;98977.84;;;6.32;73.78
55351;BME280;62194;49.480;10.986;2023-02-17T00:19:27;98975.34;;;6.36;73.74
55351;BME280;62194;49.480;10.986;2023-02-17T00:19:32;98972.41;;;6.32;73.64
55351;BME280;62194;49.480;10.986;2023-02-17T00:19:38;98986.09;;;6.41;73.76
55351;BME280;62194;49.480;10.986;2023-02-17T00:19:43;98975.34;;;6.36;74.00
55351;BME280;62194;49.480;10.986;2023-02-17T00:19:48;98989.06;;;6.40;73.59
55351;BME280;62194;49.480;10.986;2023-02-17T00:19:54;98992.78;;;6.44;73.96
55351;BME280;62194;49.480;10.986;2023-02-17T00:19:59;98992.78;;;6.44;73.89
55351;BME280;62194;49.480;10.986;2023-02-17T00:20:05;98993.31;;;6.46;73.76
55351;BME280;62194;49.480;10.986;2023-02-17T00:20:11;98981.16;;;6.43;73.62
55351;BME280;62194;49.480;10.986;2023-02-17T00:20:19;98975.06;;;6.38;73.48
55351;BME280;62194;49.480;10.986;2023-02-17T00:20:24;98982.47;;;6.46;73.39
55351;BME280;62194;49.480;10.986;2023-02-17T00:20:30;98987.97;;;6.41;73.29
55351;BME280;62194;49.480;10.986;2023-02-17T00:20:38;98977.25;;;6.36;73.43
55351;BME280;62194;49.480;10.986;2023-02-17T00:20:44;98989.88;;;6.40;73.44
55351;BME280;62194;49.480;10.986;2023-02-17T00:20:49;98978.63;;;6.33;73.58
55351;BME280;62194;49.480;10.986;2023-02-17T00:20:54;98988.78;;;6.41;73.46
55351;BME280;62194;49.480;10.986;2023-02-17T00:21:14;98975.34;;;6.36;73.55
55351;BME280;62194;49.480;10.986;2023-02-17T00:21:22;98989.47;;;6.47;73.44
55351;BME280;62194;49.480;10.986;2023-02-17T00:21:30;98982.53;;;6.41;73.51
55351;BME280;62194;49.480;10.986;2023-02-17T00:21:35;98984.97;;;6.42;73.24
55351;BME280;62194;49.480;10.986;2023-02-17T00:21:40;98990.59;;;6.46;73.46
55351;BME280;62194;49.480;10.986;2023-02-17T00:21:46;98972.94;;;6.35;73.23
55351;BME280;62194;49.480;10.986;2023-02-17T00:21:59;98982.88;;;6.39;73.39
55351;BME280;62194;49.480;10.986;2023-02-17T00:22:04;98980.34;;;6.43;73.41
55351;BME280;62194;49.480;10.986;2023-02-17T00:22:09;98986.56;;;6.43;73.34
55351;BME280;62194;49.480;10.986;2023-02-17T00:22:15;98990.78;;;6.49;73.32
55351;BME280;62194;49.480;10.986;2023-02-17T00:22:20;98969.31;;;6.39;73.32
55351;BME280;62194;49.480;10.986;2023-02-17T00:22:26;98992.09;;;6.52;73.46
55351;BME280;62194;49.480;10.986;2023-02-17T00:22:31;98970.31;;;6.43;73.41
55351;BME280;62194;49.480;10.986;2023-02-17T00:22:36;98989.91;;;6.54;73.17
55351;BME280;62194;49.480;10.986;2023-02-17T00:22:42;98985.91;;;6.51;73.15
55351;BME280;62194;49.480;10.986;2023-02-17T00:22:47;98977.56;;;6.48;73.28
55351;BME280;62194;49.480;10.986;2023-02-17T00:22:52;98986.69;;;6.52;73.21
55351;BME280;62194;49.480;10.986;2023-02-17T00:22:58;98984.25;;;6.50;73.01
55351;BME280;62194;49.480;10.986;2023-02-17T00:23:03;98978.16;;;6.45;73.09
55351;BME280;62194;49.480;10.986;2023-02-17T00:23:08;98983.97;;;6.52;73.15
55351;BME280;62194;49.480;10.986;2023-02-17T00:23:14;98978.16;;;6.45;73.21
55351;BME280;62194;49.480;10.986;2023-02-17T00:23:19;98990.19;;;6.52;73.51
55351;BME280;62194;49.480;10.986;2023-02-17T00:23:24;98982.47;;;6.46;73.37
55351;BME280;62194;49.480;10.986;2023-02-17T00:23:29;98981.88;;;6.49;73.23
55351;BME280;62194;49.480;10.986;2023-02-17T00:23:35;98982.47;;;6.46;73.12
55351;BME280;62194;49.480;10.986;2023-02-17T00:23:40;98988.28;;;6.53;73.29
55351;BME280;62194;49.480;10.986;2023-02-17T00:23:46;98987.22;;;6.54;73.33
55351;BME280;62194;49.480;10.986;2023-02-17T00:23:52;98968.91;;;6.46;73.31
55351;BME280;62194;49.480;10.986;2023-02-17T00:23:58;98989.59;;;6.55;73.20
55351;BME280;62194;49.480;10.986;2023-02-17T00:24:04;98983.06;;;6.56;73.35
55351;BME280;62194;49.480;10.986;2023-02-17T00:24:09;98975.25;;;6.55;73.42
55351;BME280;62194;49.480;10.986;2023-02-17T00:24:15;98979.75;;;6.60;73.31
55351;BME280;62194;49.480;10.986;2023-02-17T00:24:25;98969.63;;;6.51;73.25
55351;BME280;62194;49.480;10.986;2023-02-17T00:24:32;98971.34;;;6.61;72.81
55351;BME280;62194;49.480;10.986;2023-02-17T00:24:39;98983.19;;;6.65;72.85
55351;BME280;62194;49.480;10.986;2023-02-17T00:24:44;98967.94;;;6.55;72.48
55351;BME280;62194;49.480;10.986;2023-02-17T00:24:50;98981.59;;;6.64;72.42
55351;BME280;62194;49.480;10.986;2023-02-17T00:24:55;98988.59;;;6.65;72.82
55351;BME280;62194;49.480;10.986;2023-02-17T00:25:00;98965.31;;;6.50;72.59
55351;BME280;62194;49.480;10.986;2023-02-17T00:25:06;98975.13;;;6.60;72.45
55351;BME280;62194;49.480;10.986;2023-02-17T00:25:11;98976.56;;;6.57;72.70
55351;BME280;62194;49.480;10.986;2023-02-17T00:25:20;98968.84;;;6.51;72.84
55351;BME280;62194;49.480;10.986;2023-02-17T00:25:25;98971.22;;;6.52;72.76
55351;BME280;62194;49.480;10.986;2023-02-17T00:25:30;98984.38;;;6.59;72.90
55351;BME280;62194;49.480;10.986;2023-02-17T00:25:37;98968.00;;;6.50;72.73
55351;BME280;62194;49.480;10.986;2023-02-17T00:25:42;98975.25;;;6.55;72.71
55351;BME280;62194;49.480;10.986;2023-02-17T00:25:48;98982.78;;;6.58;72.82
55351;BME280;62194;49.480;10.986;2023-02-17T00:25:53;98985.97;;;6.60;72.98
55351;BME280;62194;49.480;10.986;2023-02-17T00:25:58;98984.91;;;6.61;72.71
55351;BME280;62194;49.480;10.986;2023-02-17T00:26:05;98970.13;;;6.53;72.77
55351;BME280;62194;49.480;10.986;2023-02-17T00:26:11;98980.69;;;6.55;72.85
55351;BME280;62194;49.480;10.986;2023-02-17T00:26:18;98985.97;;;6.60;73.06
55351;BME280;62194;49.480;10.986;2023-02-17T00:26:23;98973.34;;;6.55;73.21
55351;BME280;62194;49.480;10.986;2023-02-17T00:26:29;98967.72;;;6.52;72.91
55351;BME280;62194;49.480;10.986;2023-02-17T00:26:34;98974.47;;;6.54;72.97
55351;BME280;62194;49.480;10.986;2023-02-17T00:26:40;98976.56;;;6.57;72.90
55351;BME280;62194;49.480;10.986;2023-02-17T00:26:45;98983.59;;;6.59;73.16
55351;BME280;62194;49.480;10.986;2023-02-17T00:26:51;98987.88;;;6.60;73.01
55351;BME280;62194;49.480;10.986;2023-02-17T00:26:56;98967.13;;;6.55;73.17
55351;BME280;62194;49.480;10.986;2023-02-17T00:27:01;98976.78;;;6.61;73.05
55351;BME280;62194;49.480;10.986;2023-02-17T00:27:07;98971.75;;;6.54;73.01
55351;BME280;62194;49.480;10.986;2023-02-17T00:27:12;98969.84;;;6.55;73.28
55351;BME280;62194;49.480;10.986;2023-02-17T00:27:17;98979.47;;;6.61;73.18
55351;BME280;62194;49.480;10.986;2023-02-17T00:27:25;98966.00;;;6.56;73.13
55351;BME280;62194;49.480;10.986;2023-02-17T00:27:31;98967.72;;;6.52;73.21
55351;BME280;62194;49.480;10.986;2023-02-17T00:27:36;98973.03;;;6.57;73.37
55351;BME280;62194;49.480;10.986;2023-02-17T00:27:42;98964.50;;;6.50;73.31
55351;BME280;62194;49.480;10.986;2023-02-17T00:27:47;98974.66;;;6.58;73.36
55351;BME280;62194;49.480;10.986;2023-02-17T00:27:52;98976.06;;;6.55;73.48
55351;BME280;62194;49.480;10.986;2023-02-17T00:28:00;98969.84;;;6.55;73.33
55351;BME280;62194;49.480;10.986;2023-02-17T00:28:06;98986.81;;;6.61;73.52
55351;BME280;62194;49.480;10.986;2023-02-17T00:28:11;98980.88;;;6.59;73.54
55351;BME280;62194;49.480;10.986;2023-02-17T00:28:17;98969.03;;;6.54;73.44
55351;BME280;62194;49.480;10.986;2023-02-17T00:28:25;98964.22;;;6.51;73.55
55351;BME280;62194;49.480;10.986;2023-02-17T00:28:36;98963.41;;;6.51;73.41
55351;BME280;62194;49.480;10.986;2023-02-17T00:28:45;98977.16;;;6.54;73.88
55351;BME280;62194;49.480;10.986;2023-02-17T00:28:54;98972.53;;;6.55;73.75
55351;BME280;62194;49.480;10.986;2023-02-17T00:29:05;98984.59;;;6.63;73.68
55351;BME280;62194;49.480;10.986;2023-02-17T00:29:11;98983.00;;;6.62;73.60
55351;BME280;62194;49.480;10.986;2023-02-17T00:29:16;98966.13;;;6.51;73.77
55351;BME280;62194;49.480;10.986;2023-02-17T00:29:29;98973.66;;;6.54;73.63
55351;BME280;62194;49.480;10.986;2023-02-17T00:29:35;98972.53;;;6.55;73.56
55351;BME280;62194;49.480;10.986;2023-02-17T00:29:40;98989.72;;;6.64;73.56
55351;BME280;62194;49.480;10.986;2023-02-17T00:29:46;98973.66;;;6.54;73.64
55351;BME280;62194;49.480;10.986;2023-02-17T00:29:54;98964.69;;;6.53;73.90
55351;BME280;62194;49.480;10.986;2023-02-17T00:29:59;98974.16;;;6.56;73.75
55351;BME280;62194;49.480;10.986;2023-02-17T00:30:05;98990.00;;;6.63;73.70
55351;BME280;62194;49.480;10.986;2023-02-17T00:30:11;98990.53;;;6.65;73.91
55351;BME280;62194;49.480;10.986;2023-02-17T00:30:16;98975.13;;;6.60;73.93
55351;BME280;62194;49.480;10.986;2023-02-17T00:30:22;98962.31;;;6.52;73.81
55351;BME280;62194;49.480;10.986;2023-02-17T00:30:27;98990.81;;;6.63;73.63
55351;BME280;62194;49.480;10.986;2023-02-17T00:30:36;98974.16;;;6.56;73.71
55351;BME280;62194;49.480;10.986;2023-02-17T00:30:42;98970.94;;;6.54;73.65
55351;BME280;62194;49.480;10.986;2023-02-17T00:30:47;98969.84;;;6.55;73.62
55351;BME280;62194;49.480;10.986;2023-02-17T00:30:52;98991.31;;;6.65;73.52
55351;BME280;62194;49.480;10.986;2023-02-17T00:30:58;98978.16;;;6.59;73.55
55351;BME280;62194;49.480;10.986;2023-02-17T00:31:13;98966.53;;;6.58;73.41
55351;BME280;62194;49.480;10.986;2023-02-17T00:31:21;98970.94;;;6.54;73.15
55351;BME280;62194;49.480;10.986;2023-02-17T00:31:26;98986.41;;;6.67;73.33
55351;BME280;62194;49.480;10.986;2023-02-17T00:31:32;98983.19;;;6.65;73.23
55351;BME280;62194;49.480;10.986;2023-02-17T00:31:37;98974.16;;;6.56;73.22
55351;BME280;62194;49.480;10.986;2023-02-17T00:31:43;98985.69;;;6.62;73.33
55351;BME280;62194;49.480;10.986;2023-02-17T00:31:51;98975.47;;;6.59;73.21
55351;BME280;62194;49.480;10.986;2023-02-17T00:31:56;98980.47;;;6.65;73.23
55351;BME280;62194;49.480;10.986;2023-02-17T00:32:08;98972.03;;;6.53;73.12
55351;BME280;62194;49.480;10.986;2023-02-17T00:32:14;98982.47;;;6.60;73.35
55351;BME280;62194;49.480;10.986;2023-02-17T00:32:19;98978.97;;;6.59;73.26
55351;BME280;62194;49.480;10.986;2023-02-17T00:32:25;98966.94;;;6.51;73.36
55351;BME280;62194;49.480;10.986;2023-02-17T00:32:30;98979.75;;;6.60;73.27
55351;BME280;62194;49.480;10.986;2023-02-17T00:32:35;98980.88;;;6.59;73.21
55351;BME280;62194;49.480;10.986;2023-02-17T00:32:41;98970.72;;;6.50;73.37
55351;BME280;62194;49.480;10.986;2023-02-17T00:32:46;98979.56;;;6.56;73.43
55351;BME280;62194;49.480;10.986;2023-02-17T00:32:52;98982.78;;;6.58;73.44